createdAt,value
2023-04-12T00:04:16.259Z,99903.00
2023-04-12T00:14:16.531Z,99883.00
2023-04-12T00:24:16.637Z,99864.00
2023-04-12T00:34:16.859Z,99840.00
2023-04-12T00:44:17.953Z,99813.00
2023-04-12T00:54:20.037Z,99791.00
2023-04-12T01:04:22.242Z,99775.00
2023-04-12T01:14:23.484Z,99751.00
2023-04-12T01:24:23.624Z,99728.00
2023-04-12T01:34:23.728Z,99708.00
2023-04-12T01:44:23.595Z,99694.00
2023-04-12T01:54:23.602Z,99667.00
2023-04-12T02:04:25.019Z,99641.00
2023-04-12T02:14:26.672Z,99614.00
2023-04-12T02:24:27.363Z,99587.00
2023-04-12T02:34:31.517Z,99573.00
2023-04-12T02:44:36.577Z,99551.00
2023-04-12T02:54:37.727Z,99522.00
2023-04-12T03:04:41.147Z,99492.00
2023-04-12T03:14:42.658Z,99463.00
2023-04-12T03:24:45.925Z,99441.00
2023-04-12T03:34:46.529Z,99412.00
2023-04-12T03:44:48.496Z,99384.00
2023-04-12T03:54:50.586Z,99363.00
2023-04-12T04:04:52.662Z,99331.00
2023-04-12T04:14:54.759Z,99304.00
2023-04-12T04:24:56.045Z,99284.00
2023-04-12T04:34:56.297Z,99267.00
2023-04-12T04:44:59.363Z,99248.00
2023-04-12T04:55:04.052Z,99241.00
2023-04-12T05:05:05.657Z,99227.00
2023-04-12T05:15:11.574Z,99221.00
2023-04-12T05:25:10.808Z,99207.00
2023-04-12T05:35:12.166Z,99192.00
2023-04-12T05:45:12.308Z,99176.00
2023-04-12T05:55:14.804Z,99162.00
2023-04-12T06:05:16.871Z,99150.00
2023-04-12T06:15:19.133Z,99135.00
2023-04-12T06:25:20.796Z,99123.00
2023-04-12T06:35:21.811Z,99113.00
2023-04-12T06:45:22.296Z,99100.00
2023-04-12T06:55:22.019Z,99082.00
2023-04-12T07:05:22.037Z,99064.00
2023-04-12T07:15:21.941Z,99052.00
2023-04-12T07:25:22.303Z,99037.00
2023-04-12T07:35:22.269Z,99023.00
2023-04-12T07:45:24.778Z,99003.00
2023-04-12T07:55:25.129Z,98979.00
2023-04-12T08:05:25.222Z,98979.00
2023-04-12T08:15:25.350Z,98979.00
2023-04-12T08:25:25.566Z,98975.00
2023-04-12T08:35:26.165Z,98966.00
2023-04-12T08:45:26.061Z,98962.00
2023-04-12T08:55:26.173Z,98956.00
2023-04-12T09:05:26.623Z,98952.00
2023-04-12T09:15:27.131Z,98940.00
2023-04-12T09:25:27.212Z,98940.00
2023-04-12T09:35:27.207Z,98934.00
2023-04-12T09:45:27.975Z,98934.00
2023-04-12T09:55:28.277Z,98930.00
2023-04-12T10:05:29.493Z,98919.00
2023-04-12T10:15:32.093Z,98911.00
2023-04-12T10:25:32.285Z,98901.00
2023-04-12T10:35:32.308Z,98885.00
2023-04-12T10:45:33.482Z,98887.00
2023-04-12T10:55:33.283Z,98903.00
2023-04-12T11:05:35.248Z,98917.00
2023-04-12T11:15:35.797Z,98921.00
2023-04-12T11:25:36.334Z,98930.00
2023-04-12T11:35:36.548Z,98925.00
2023-04-12T11:45:36.758Z,98926.00
2023-04-12T11:55:37.405Z,98928.00
2023-04-12T12:05:38.051Z,98930.00
2023-04-12T12:15:38.510Z,98923.00
2023-04-12T12:25:38.480Z,98923.00
2023-04-12T12:35:38.602Z,98923.00
2023-04-12T12:45:40.155Z,98923.00
2023-04-12T12:55:40.580Z,98917.00
2023-04-12T13:05:43.573Z,98911.00
2023-04-12T13:15:45.411Z,98903.00
2023-04-12T13:25:45.857Z,98901.00
2023-04-12T13:35:46.944Z,98891.00
2023-04-12T13:45:47.860Z,98891.00
2023-04-12T13:55:49.655Z,98891.00
2023-04-12T14:05:49.669Z,98891.00
2023-04-12T14:15:49.624Z,98897.00
2023-04-12T14:25:49.805Z,98911.00
2023-04-12T14:35:49.717Z,98938.00
2023-04-12T14:45:49.571Z,98954.00
2023-04-12T14:55:49.626Z,98952.00
2023-04-12T15:05:49.820Z,98948.00
2023-04-12T15:15:49.726Z,98946.00
2023-04-12T15:25:50.053Z,98952.00
2023-04-12T15:35:50.838Z,98968.00
2023-04-12T15:45:52.893Z,99005.00
2023-04-12T15:55:54.355Z,99021.00
2023-04-12T16:05:56.735Z,99039.00
2023-04-12T16:15:56.752Z,99048.00
2023-04-12T16:25:56.787Z,99060.00
2023-04-12T16:35:56.797Z,99062.00
2023-04-12T16:45:57.142Z,99058.00
2023-04-12T16:55:58.665Z,99056.00
2023-04-12T17:05:59.012Z,99043.00
2023-04-12T17:15:58.902Z,99037.00
2023-04-12T17:25:58.900Z,99037.00
2023-04-12T17:35:58.972Z,99039.00
2023-04-12T17:46:01.228Z,99033.00
2023-04-12T17:56:02.353Z,99035.00
2023-04-12T18:06:03.728Z,99045.00
2023-04-12T18:16:04.017Z,99046.00
2023-04-12T18:26:03.942Z,99041.00
2023-04-12T18:36:03.995Z,99058.00
2023-04-12T18:46:03.860Z,99066.00
2023-04-12T18:56:03.980Z,99074.00
2023-04-12T19:06:04.197Z,99082.00
2023-04-12T19:16:05.863Z,99092.00
2023-04-12T19:26:06.021Z,99107.00
2023-04-12T19:36:06.876Z,99148.00
2023-04-12T19:46:07.844Z,99143.00
2023-04-12T19:56:09.273Z,99127.00
2023-04-12T20:06:09.061Z,99115.00
2023-04-12T20:16:09.436Z,99111.00
2023-04-12T20:26:10.000Z,99109.00
2023-04-12T20:36:10.467Z,99107.00
2023-04-12T20:46:14.368Z,99103.00
2023-04-12T20:56:15.149Z,99092.00
2023-04-12T21:06:16.617Z,99086.00
2023-04-12T21:16:17.181Z,99092.00
2023-04-12T21:26:17.106Z,99107.00
2023-04-12T21:36:17.471Z,99127.00
2023-04-12T21:46:18.390Z,99119.00
2023-04-12T21:56:18.144Z,99107.00
2023-04-12T22:06:19.078Z,99094.00
2023-04-12T22:16:21.368Z,99074.00
2023-04-12T22:26:21.226Z,99062.00
2023-04-12T22:36:21.198Z,99054.00
2023-04-12T22:46:21.265Z,99048.00
2023-04-12T22:56:21.470Z,99045.00
2023-04-12T23:06:21.297Z,99025.00
2023-04-12T23:16:21.914Z,99001.00
2023-04-12T23:26:22.258Z,98987.00
2023-04-12T23:36:24.104Z,98977.00
2023-04-12T23:46:24.318Z,98964.00
2023-04-12T23:56:24.311Z,98954.00
